sensor_id;sensor_type;location;lat;lon;timestamp;pressure;altitude;pressure_sealevel;temperature;humidity
60725;BME280;59881;36.722;-4.462;2023-02-20T00:00:22;101615.16;;;12.78;74.34
60725;BME280;59881;36.722;-4.462;2023-02-20T00:02:49;101526.59;;;12.71;74.10
60725;BME280;59881;36.722;-4.462;2023-02-20T00:05:15;101584.16;;;13.09;74.22
60725;BME280;59881;36.722;-4.462;2023-02-20T00:07:41;101538.66;;;12.90;74.29
60725;BME280;59881;36.722;-4.462;2023-02-20T00:10:07;101525.25;;;12.78;74.40
60725;BME280;59881;36.722;-4.462;2023-02-20T00:12:33;101574.22;;;13.13;74.31
60725;BME280;59881;36.722;-4.462;2023-02-20T00:14:58;101573.28;;;13.14;74.39
60725;BME280;59881;36.722;-4.462;2023-02-20T00:17:24;101555.19;;;12.93;74.58
60725;BME280;59881;36.722;-4.462;2023-02-20T00:19:49;101408.72;;;12.11;74.43
60725;BME280;59881;36.722;-4.462;2023-02-20T00:22:15;101558.25;;;13.14;74.45
60725;BME280;59881;36.722;-4.462;2023-02-20T00:24:40;101539.56;;;13.03;74.63
60725;BME280;59881;36.722;-4.462;2023-02-20T00:27:06;101560.91;;;13.14;74.51
60725;BME280;59881;36.722;-4.462;2023-02-20T00:29:32;101554.97;;;13.11;74.46
60725;BME280;59881;36.722;-4.462;2023-02-20T00:31:57;101501.66;;;12.75;74.67
60725;BME280;59881;36.722;-4.462;2023-02-20T00:34:26;101520.63;;;12.82;74.47
60725;BME280;59881;36.722;-4.462;2023-02-20T00:36:52;101550.72;;;12.94;74.56
60725;BME280;59881;36.722;-4.462;2023-02-20T00:39:17;100626.34;;;7.24;74.22
60725;BME280;59881;36.722;-4.462;2023-02-20T00:41:43;101542.63;;;12.82;75.06
60725;BME280;59881;36.722;-4.462;2023-02-20T00:44:09;101508.53;;;12.63;75.27
60725;BME280;59881;36.722;-4.462;2023-02-20T00:46:34;101526.09;;;12.79;75.61
60725;BME280;59881;36.722;-4.462;2023-02-20T00:49:00;101416.94;;;12.21;75.98
60725;BME280;59881;36.722;-4.462;2023-02-20T00:51:26;100608.16;;;7.37;75.79
60725;BME280;59881;36.722;-4.462;2023-02-20T00:53:52;101507.47;;;12.95;76.61
60725;BME280;59881;36.722;-4.462;2023-02-20T00:56:17;101461.59;;;12.81;76.43
60725;BME280;59881;36.722;-4.462;2023-02-20T00:58:43;101475.25;;;12.88;76.22
60725;BME280;59881;36.722;-4.462;2023-02-20T01:01:08;101500.81;;;13.16;75.66
60725;BME280;59881;36.722;-4.462;2023-02-20T01:03:34;101501.09;;;13.12;75.14
60725;BME280;59881;36.722;-4.462;2023-02-20T01:05:59;101418.69;;;12.49;74.87
60725;BME280;59881;36.722;-4.462;2023-02-20T01:08:25;101485.69;;;12.77;74.82
60725;BME280;59881;36.722;-4.462;2023-02-20T01:10:51;101513.63;;;12.81;74.81
60725;BME280;59881;36.722;-4.462;2023-02-20T01:13:17;101033.84;;;9.83;74.43
60725;BME280;59881;36.722;-4.462;2023-02-20T01:15:42;101310.69;;;11.44;74.88
60725;BME280;59881;36.722;-4.462;2023-02-20T01:18:08;101506.19;;;12.59;75.50
60725;BME280;59881;36.722;-4.462;2023-02-20T01:20:34;101059.72;;;9.75;75.37
60725;BME280;59881;36.722;-4.462;2023-02-20T01:22:59;101499.78;;;12.49;75.85
60725;BME280;59881;36.722;-4.462;2023-02-20T01:25:25;100581.72;;;6.92;75.41
60725;BME280;59881;36.722;-4.462;2023-02-20T01:27:51;101459.56;;;12.15;76.03
60725;BME280;59881;36.722;-4.462;2023-02-20T01:30:17;101494.50;;;12.34;76.60
60725;BME280;59881;36.722;-4.462;2023-02-20T01:32:43;101492.03;;;12.31;76.76
60725;BME280;59881;36.722;-4.462;2023-02-20T01:35:08;101060.34;;;9.64;76.78
60725;BME280;59881;36.722;-4.462;2023-02-20T01:37:34;101148.94;;;10.26;76.73
60725;BME280;59881;36.722;-4.462;2023-02-20T01:40:00;101481.84;;;12.25;77.30
60725;BME280;59881;36.722;-4.462;2023-02-20T01:42:28;101481.84;;;12.25;77.48
60725;BME280;59881;36.722;-4.462;2023-02-20T01:45:10;101475.81;;;12.23;77.62
60725;BME280;59881;36.722;-4.462;2023-02-20T01:47:39;101415.66;;;11.84;77.85
60725;BME280;59881;36.722;-4.462;2023-02-20T01:50:05;101470.97;;;12.15;78.09
60725;BME280;59881;36.722;-4.462;2023-02-20T01:52:33;101388.66;;;11.64;78.08
60725;BME280;59881;36.722;-4.462;2023-02-20T01:55:21;101468.53;;;12.12;78.28
60725;BME280;59881;36.722;-4.462;2023-02-20T01:57:51;101436.53;;;11.88;78.34
60725;BME280;59881;36.722;-4.462;2023-02-20T02:00:20;101432.16;;;11.87;78.62
60725;BME280;59881;36.722;-4.462;2023-02-20T02:03:10;101463.72;;;12.05;78.80
60725;BME280;59881;36.722;-4.462;2023-02-20T02:05:39;101681.06;;;12.07;79.27
60725;BME280;59881;36.722;-4.462;2023-02-20T02:08:07;101431.16;;;11.90;79.26
60725;BME280;59881;36.722;-4.462;2023-02-20T02:10:52;100640.56;;;7.02;78.60
60725;BME280;59881;36.722;-4.462;2023-02-20T02:13:19;101425.16;;;11.86;79.45
60725;BME280;59881;36.722;-4.462;2023-02-20T02:15:45;101427.03;;;11.84;79.12
60725;BME280;59881;36.722;-4.462;2023-02-20T02:23:50;101446.63;;;12.10;79.23
60725;BME280;59881;36.722;-4.462;2023-02-20T02:42:56;100812.81;;;8.48;77.54
60725;BME280;59881;36.722;-4.462;2023-02-20T02:45:40;101438.34;;;12.16;77.73
60725;BME280;59881;36.722;-4.462;2023-02-20T02:48:40;101629.34;;;11.87;77.72
60725;BME280;59881;36.722;-4.462;2023-02-20T02:51:15;101401.88;;;11.78;78.20
60725;BME280;59881;36.722;-4.462;2023-02-20T02:54:18;101433.78;;;11.90;78.24
60725;BME280;59881;36.722;-4.462;2023-02-20T02:56:47;101430.72;;;11.81;78.13
60725;BME280;59881;36.722;-4.462;2023-02-20T02:59:24;101531.16;;;11.80;78.75
60725;BME280;59881;36.722;-4.462;2023-02-20T03:02:03;101437.25;;;11.76;78.80
60725;BME280;59881;36.722;-4.462;2023-02-20T03:04:30;101434.69;;;11.74;78.90
60725;BME280;59881;36.722;-4.462;2023-02-20T03:07:03;101433.06;;;11.72;79.10
60725;BME280;59881;36.722;-4.462;2023-02-20T03:09:35;101390.78;;;11.43;79.15
60725;BME280;59881;36.722;-4.462;2023-02-20T03:12:03;101430.88;;;11.64;79.50
60725;BME280;59881;36.722;-4.462;2023-02-20T03:14:39;101425.72;;;11.63;79.59
60725;BME280;59881;36.722;-4.462;2023-02-20T03:17:37;101405.50;;;11.47;79.78
60725;BME280;59881;36.722;-4.462;2023-02-20T03:20:09;101426.06;;;11.56;79.77
60725;BME280;59881;36.722;-4.462;2023-02-20T03:22:42;101412.53;;;11.47;80.30
60725;BME280;59881;36.722;-4.462;2023-02-20T03:25:35;101421.91;;;11.52;80.27
60725;BME280;59881;36.722;-4.462;2023-02-20T03:28:20;101417.66;;;11.50;80.45
60725;BME280;59881;36.722;-4.462;2023-02-20T03:31:07;101409.06;;;11.46;80.35
60725;BME280;59881;36.722;-4.462;2023-02-20T03:33:41;101363.66;;;11.11;80.65
60725;BME280;59881;36.722;-4.462;2023-02-20T03:36:34;101418.84;;;11.44;80.85
60725;BME280;59881;36.722;-4.462;2023-02-20T03:39:24;100848.72;;;7.98;80.93
60725;BME280;59881;36.722;-4.462;2023-02-20T03:42:11;101504.31;;;11.42;81.13
60725;BME280;59881;36.722;-4.462;2023-02-20T03:44:57;101394.53;;;11.25;81.51
60725;BME280;59881;36.722;-4.462;2023-02-20T03:47:26;101343.16;;;11.00;81.54
60725;BME280;59881;36.722;-4.462;2023-02-20T03:49:53;101412.53;;;11.47;81.83
60725;BME280;59881;36.722;-4.462;2023-02-20T03:52:21;100751.47;;;7.36;81.41
60725;BME280;59881;36.722;-4.462;2023-02-20T03:54:48;100921.38;;;8.47;81.43
60725;BME280;59881;36.722;-4.462;2023-02-20T03:57:15;101426.69;;;11.46;82.36
60725;BME280;59881;36.722;-4.462;2023-02-20T03:59:44;101412.66;;;11.45;82.05
60725;BME280;59881;36.722;-4.462;2023-02-20T04:02:24;101421.50;;;11.44;82.24
60725;BME280;59881;36.722;-4.462;2023-02-20T04:04:52;101431.22;;;11.44;82.33
60725;BME280;59881;36.722;-4.462;2023-02-20T04:07:33;101396.41;;;11.23;82.22
60725;BME280;59881;36.722;-4.462;2023-02-20T04:10:04;100599.44;;;6.36;81.71
60725;BME280;59881;36.722;-4.462;2023-02-20T04:12:35;100775.28;;;7.32;81.83
60725;BME280;59881;36.722;-4.462;2023-02-20T04:15:03;101389.72;;;11.01;82.45
60725;BME280;59881;36.722;-4.462;2023-02-20T04:17:34;101420.41;;;11.18;82.21
60725;BME280;59881;36.722;-4.462;2023-02-20T04:20:02;101423.38;;;11.12;82.36
60725;BME280;59881;36.722;-4.462;2023-02-20T04:22:32;101426.16;;;11.09;82.76
60725;BME280;59881;36.722;-4.462;2023-02-20T04:25:05;101401.88;;;10.88;82.87
60725;BME280;59881;36.722;-4.462;2023-02-20T04:27:33;101481.13;;;10.85;82.63
60725;BME280;59881;36.722;-4.462;2023-02-20T04:29:58;101390.41;;;10.73;83.30
60725;BME280;59881;36.722;-4.462;2023-02-20T04:32:24;101434.03;;;10.94;83.37
60725;BME280;59881;36.722;-4.462;2023-02-20T04:34:50;100855.22;;;7.40;82.95
60725;BME280;59881;36.722;-4.462;2023-02-20T04:37:17;101436.75;;;10.93;83.74
60725;BME280;59881;36.722;-4.462;2023-02-20T04:39:44;101376.28;;;10.58;83.59
60725;BME280;59881;36.722;-4.462;2023-02-20T04:42:10;101441.25;;;10.91;84.03
60725;BME280;59881;36.722;-4.462;2023-02-20T04:44:36;101436.94;;;10.90;83.74
60725;BME280;59881;36.722;-4.462;2023-02-20T04:47:07;101441.34;;;10.89;84.18
60725;BME280;59881;36.722;-4.462;2023-02-20T04:49:33;100509.69;;;5.28;83.92
60725;BME280;59881;36.722;-4.462;2023-02-20T04:51:59;101248.22;;;9.76;84.64
60725;BME280;59881;36.722;-4.462;2023-02-20T04:54:25;101439.44;;;10.91;84.42
60725;BME280;59881;36.722;-4.462;2023-02-20T04:56:51;101433.44;;;10.89;84.24
60725;BME280;59881;36.722;-4.462;2023-02-20T04:59:17;101435.31;;;10.87;84.25
60725;BME280;59881;36.722;-4.462;2023-02-20T05:01:42;101212.81;;;9.50;84.01
60725;BME280;59881;36.722;-4.462;2023-02-20T05:04:22;101431.91;;;10.85;84.63
60725;BME280;59881;36.722;-4.462;2023-02-20T05:06:49;101444.72;;;10.91;84.93
60725;BME280;59881;36.722;-4.462;2023-02-20T05:09:15;101327.25;;;10.24;84.50
60725;BME280;59881;36.722;-4.462;2023-02-20T05:11:41;101394.34;;;10.66;84.31
60725;BME280;59881;36.722;-4.462;2023-02-20T05:14:06;101441.84;;;10.96;84.23
60725;BME280;59881;36.722;-4.462;2023-02-20T05:16:32;101418.13;;;10.80;84.22
60725;BME280;59881;36.722;-4.462;2023-02-20T05:18:58;101453.91;;;11.00;84.09
60725;BME280;59881;36.722;-4.462;2023-02-20T05:21:26;101348.78;;;10.32;83.74
60725;BME280;59881;36.722;-4.462;2023-02-20T05:24:10;101451.53;;;10.95;83.81
60725;BME280;59881;36.722;-4.462;2023-02-20T05:26:36;101385.91;;;10.59;83.59
60725;BME280;59881;36.722;-4.462;2023-02-20T05:29:02;101212.72;;;9.51;83.04
60725;BME280;59881;36.722;-4.462;2023-02-20T05:31:27;101453.25;;;10.96;83.31
60725;BME280;59881;36.722;-4.462;2023-02-20T05:33:52;101469.31;;;10.92;83.12
60725;BME280;59881;36.722;-4.462;2023-02-20T05:36:18;101452.75;;;10.90;82.93
60725;BME280;59881;36.722;-4.462;2023-02-20T05:38:44;101452.63;;;10.91;83.22
60725;BME280;59881;36.722;-4.462;2023-02-20T05:41:17;101456.16;;;10.92;82.82
60725;BME280;59881;36.722;-4.462;2023-02-20T05:43:44;100513.66;;;5.18;82.28
60725;BME280;59881;36.722;-4.462;2023-02-20T05:46:09;101466.75;;;10.90;82.35
60725;BME280;59881;36.722;-4.462;2023-02-20T05:48:35;101310.47;;;9.93;82.65
60725;BME280;59881;36.722;-4.462;2023-02-20T05:51:00;101383.66;;;10.20;82.62
60725;BME280;59881;36.722;-4.462;2023-02-20T05:53:27;101466.59;;;10.93;82.55
60725;BME280;59881;36.722;-4.462;2023-02-20T05:55:54;101456.03;;;10.93;82.17
60725;BME280;59881;36.722;-4.462;2023-02-20T05:58:19;101466.50;;;10.95;82.34
60725;BME280;59881;36.722;-4.462;2023-02-20T06:00:45;101470.09;;;10.94;82.52
60725;BME280;59881;36.722;-4.462;2023-02-20T06:03:12;100567.63;;;5.55;81.68
60725;BME280;59881;36.722;-4.462;2023-02-20T06:05:38;101465.41;;;10.99;81.83
60725;BME280;59881;36.722;-4.462;2023-02-20T06:08:03;101457.50;;;10.99;81.71
60725;BME280;59881;36.722;-4.462;2023-02-20T06:10:29;101363.72;;;10.31;81.66
60725;BME280;59881;36.722;-4.462;2023-02-20T06:12:55;101475.19;;;10.97;81.83
60725;BME280;59881;36.722;-4.462;2023-02-20T06:15:20;101442.78;;;9.97;81.31
60725;BME280;59881;36.722;-4.462;2023-02-20T06:17:46;101336.63;;;9.63;81.05
60725;BME280;59881;36.722;-4.462;2023-02-20T06:20:11;101438.09;;;10.68;81.39
60725;BME280;59881;36.722;-4.462;2023-02-20T06:22:37;101591.63;;;10.89;81.44
60725;BME280;59881;36.722;-4.462;2023-02-20T06:25:03;101443.19;;;10.71;81.36
60725;BME280;59881;36.722;-4.462;2023-02-20T06:27:29;100652.38;;;5.88;80.87
60725;BME280;59881;36.722;-4.462;2023-02-20T06:29:54;101519.50;;;10.90;81.05
60725;BME280;59881;36.722;-4.462;2023-02-20T06:32:19;100958.38;;;7.74;81.13
60725;BME280;59881;36.722;-4.462;2023-02-20T06:34:45;101512.16;;;10.95;81.63
60725;BME280;59881;36.722;-4.462;2023-02-20T06:37:11;101377.00;;;10.30;81.71
60725;BME280;59881;36.722;-4.462;2023-02-20T06:39:37;101393.97;;;10.40;81.45
60725;BME280;59881;36.722;-4.462;2023-02-20T06:42:04;101538.38;;;10.98;81.57
60725;BME280;59881;36.722;-4.462;2023-02-20T06:44:30;101423.97;;;10.53;81.08
60725;BME280;59881;36.722;-4.462;2023-02-20T06:46:57;100867.47;;;7.22;81.02
60725;BME280;59881;36.722;-4.462;2023-02-20T06:49:23;101002.59;;;7.64;80.87
60725;BME280;59881;36.722;-4.462;2023-02-20T06:51:52;100989.63;;;7.79;81.06
60725;BME280;59881;36.722;-4.462;2023-02-20T06:54:17;101495.31;;;10.98;81.28
60725;BME280;59881;36.722;-4.462;2023-02-20T06:56:46;101435.81;;;10.62;81.35
60725;BME280;59881;36.722;-4.462;2023-02-20T06:59:13;101452.75;;;10.74;81.10
60725;BME280;59881;36.722;-4.462;2023-02-20T07:01:41;101493.97;;;11.07;81.70
60725;BME280;59881;36.722;-4.462;2023-02-20T07:04:16;100534.53;;;5.37;81.17
60725;BME280;59881;36.722;-4.462;2023-02-20T07:06:43;101420.44;;;10.70;81.45
60725;BME280;59881;36.722;-4.462;2023-02-20T07:09:09;101497.44;;;11.39;81.01
60725;BME280;59881;36.722;-4.462;2023-02-20T07:11:34;101498.63;;;11.49;80.91
60725;BME280;59881;36.722;-4.462;2023-02-20T07:14:00;101248.50;;;9.38;80.03
60725;BME280;59881;36.722;-4.462;2023-02-20T07:16:26;101507.69;;;11.59;79.84
60725;BME280;59881;36.722;-4.462;2023-02-20T07:18:51;101396.84;;;10.99;79.46
60725;BME280;59881;36.722;-4.462;2023-02-20T07:21:17;101513.88;;;11.74;78.74
60725;BME280;59881;36.722;-4.462;2023-02-20T07:23:45;101518.88;;;11.79;78.58
60725;BME280;59881;36.722;-4.462;2023-02-20T07:26:28;101527.38;;;11.84;77.99
60725;BME280;59881;36.722;-4.462;2023-02-20T07:28:54;101508.59;;;11.74;77.87
60725;BME280;59881;36.722;-4.462;2023-02-20T07:31:22;101291.59;;;10.50;77.35
60725;BME280;59881;36.722;-4.462;2023-02-20T07:33:48;101510.53;;;11.87;77.63
60725;BME280;59881;36.722;-4.462;2023-02-20T07:36:14;101542.47;;;12.12;77.30
60725;BME280;59881;36.722;-4.462;2023-02-20T07:38:40;101077.56;;;9.38;76.74
60725;BME280;59881;36.722;-4.462;2023-02-20T07:41:07;101443.72;;;11.70;76.65
60725;BME280;59881;36.722;-4.462;2023-02-20T07:43:32;101102.00;;;9.72;76.25
60725;BME280;59881;36.722;-4.462;2023-02-20T07:45:58;100841.91;;;8.27;75.77
60725;BME280;59881;36.722;-4.462;2023-02-20T07:48:24;101547.34;;;12.63;75.99
60725;BME280;59881;36.722;-4.462;2023-02-20T07:50:49;101553.59;;;12.76;75.54
60725;BME280;59881;36.722;-4.462;2023-02-20T07:53:18;101555.56;;;12.87;75.23
60725;BME280;59881;36.722;-4.462;2023-02-20T07:55:44;101555.81;;;12.97;74.72
60725;BME280;59881;36.722;-4.462;2023-02-20T07:58:09;101552.72;;;13.04;74.37
60725;BME280;59881;36.722;-4.462;2023-02-20T08:00:35;101530.25;;;12.97;73.93
60725;BME280;59881;36.722;-4.462;2023-02-20T08:03:01;101566.09;;;13.30;73.28
60725;BME280;59881;36.722;-4.462;2023-02-20T08:05:27;101556.97;;;13.49;72.63
60725;BME280;59881;36.722;-4.462;2023-02-20T08:07:53;101532.94;;;13.52;71.94
60725;BME280;59881;36.722;-4.462;2023-02-20T08:10:21;101539.31;;;13.35;71.35
60725;BME280;59881;36.722;-4.462;2023-02-20T08:12:48;101446.81;;;13.33;70.53
60725;BME280;59881;36.722;-4.462;2023-02-20T08:15:14;101064.09;;;11.08;70.01
60725;BME280;59881;36.722;-4.462;2023-02-20T08:17:39;101569.66;;;14.23;69.82
60725;BME280;59881;36.722;-4.462;2023-02-20T08:20:06;101517.84;;;14.19;69.30
60725;BME280;59881;36.722;-4.462;2023-02-20T08:22:33;101558.28;;;14.61;68.43
60725;BME280;59881;36.722;-4.462;2023-02-20T08:24:59;101555.47;;;14.88;67.79
60725;BME280;59881;36.722;-4.462;2023-02-20T08:27:25;101557.75;;;15.19;66.87
60725;BME280;59881;36.722;-4.462;2023-02-20T08:29:52;101161.84;;;13.08;66.09
60725;BME280;59881;36.722;-4.462;2023-02-20T08:32:18;101599.38;;;15.42;65.06
60725;BME280;59881;36.722;-4.462;2023-02-20T08:34:43;101508.19;;;16.14;63.84
60725;BME280;59881;36.722;-4.462;2023-02-20T08:37:09;101180.75;;;14.38;61.88
60725;BME280;59881;36.722;-4.462;2023-02-20T08:39:35;101556.38;;;17.77;60.13
60725;BME280;59881;36.722;-4.462;2023-02-20T08:42:01;101457.16;;;17.85;57.58
60725;BME280;59881;36.722;-4.462;2023-02-20T08:44:26;101548.84;;;19.07;55.42
60725;BME280;59881;36.722;-4.462;2023-02-20T08:46:52;100932.09;;;15.95;53.52
60725;BME280;59881;36.722;-4.462;2023-02-20T08:49:18;101230.25;;;18.18;51.33
60725;BME280;59881;36.722;-4.462;2023-02-20T08:51:51;101550.94;;;21.60;48.94
60725;BME280;59881;36.722;-4.462;2023-02-20T08:54:17;101497.19;;;22.05;45.96
60725;BME280;59881;36.722;-4.462;2023-02-20T08:56:42;101513.69;;;22.79;44.01
60725;BME280;59881;36.722;-4.462;2023-02-20T08:59:08;101534.16;;;23.31;42.72
60725;BME280;59881;36.722;-4.462;2023-02-20T09:01:33;101513.88;;;23.45;42.02
60725;BME280;59881;36.722;-4.462;2023-02-20T09:03:59;101540.28;;;23.74;41.69
60725;BME280;59881;36.722;-4.462;2023-02-20T09:06:25;101461.41;;;23.57;40.96
60725;BME280;59881;36.722;-4.462;2023-02-20T09:08:52;101362.13;;;23.14;40.23
60725;BME280;59881;36.722;-4.462;2023-02-20T09:11:18;100918.22;;;20.60;40.04
60725;BME280;59881;36.722;-4.462;2023-02-20T09:13:45;101585.25;;;25.18;38.90
60725;BME280;59881;36.722;-4.462;2023-02-20T09:16:12;101563.59;;;25.89;37.18
60725;BME280;59881;36.722;-4.462;2023-02-20T09:18:38;101592.63;;;27.14;34.57
60725;BME280;59881;36.722;-4.462;2023-02-20T09:21:07;101540.81;;;27.96;32.92
60725;BME280;59881;36.722;-4.462;2023-02-20T09:23:33;101412.88;;;28.71;30.79
60725;BME280;59881;36.722;-4.462;2023-02-20T09:25:59;101295.88;;;28.87;29.56
60725;BME280;59881;36.722;-4.462;2023-02-20T09:28:24;101631.66;;;32.08;26.86
60725;BME280;59881;36.722;-4.462;2023-02-20T09:30:50;101598.72;;;32.90;25.77
60725;BME280;59881;36.722;-4.462;2023-02-20T09:33:19;101567.59;;;33.28;24.84
60725;BME280;59881;36.722;-4.462;2023-02-20T09:35:45;101293.56;;;32.45;23.64
60725;BME280;59881;36.722;-4.462;2023-02-20T09:38:14;101660.38;;;34.78;22.95
60725;BME280;59881;36.722;-4.462;2023-02-20T09:40:39;101315.38;;;33.70;22.43
60725;BME280;59881;36.722;-4.462;2023-02-20T09:43:29;101591.16;;;36.14;21.38
60725;BME280;59881;36.722;-4.462;2023-02-20T09:46:11;101596.75;;;36.80;21.03
60725;BME280;59881;36.722;-4.462;2023-02-20T09:49:18;101600.53;;;37.51;19.57
60725;BME280;59881;36.722;-4.462;2023-02-20T09:51:48;101595.31;;;37.81;19.12
60725;BME280;59881;36.722;-4.462;2023-02-20T09:54:48;101600.47;;;38.05;18.71
60725;BME280;59881;36.722;-4.462;2023-02-20T09:57:21;101479.03;;;37.86;17.93
60725;BME280;59881;36.722;-4.462;2023-02-20T10:00:13;101604.22;;;38.89;17.70
60725;BME280;59881;36.722;-4.462;2023-02-20T10:02:56;101479.88;;;38.44;17.43
60725;BME280;59881;36.722;-4.462;2023-02-20T10:05:28;101367.78;;;37.51;17.37
60725;BME280;59881;36.722;-4.462;2023-02-20T10:07:54;101134.66;;;36.00;17.54
60725;BME280;59881;36.722;-4.462;2023-02-20T10:10:26;101317.91;;;36.95;17.12
60725;BME280;59881;36.722;-4.462;2023-02-20T10:15:53;101569.59;;;37.98;17.18
60725;BME280;59881;36.722;-4.462;2023-02-20T10:24:20;101385.03;;;37.89;17.08
60725;BME280;59881;36.722;-4.462;2023-02-20T10:27:03;101000.59;;;36.36;16.43
60725;BME280;59881;36.722;-4.462;2023-02-20T10:29:35;101522.13;;;40.14;15.23
60725;BME280;59881;36.722;-4.462;2023-02-20T10:32:29;101599.16;;;41.35;15.00
60725;BME280;59881;36.722;-4.462;2023-02-20T10:35:06;101595.19;;;41.52;14.35
60725;BME280;59881;36.722;-4.462;2023-02-20T10:37:41;101598.34;;;41.74;15.18
60725;BME280;59881;36.722;-4.462;2023-02-20T10:40:17;101595.03;;;42.02;13.71
60725;BME280;59881;36.722;-4.462;2023-02-20T10:42:54;101558.78;;;42.03;13.88
60725;BME280;59881;36.722;-4.462;2023-02-20T10:45:35;101480.13;;;41.80;13.30
60725;BME280;59881;36.722;-4.462;2023-02-20T10:48:06;101390.56;;;40.04;14.25
60725;BME280;59881;36.722;-4.462;2023-02-20T10:53:55;101580.66;;;39.80;15.54
60725;BME280;59881;36.722;-4.462;2023-02-20T10:59:40;101586.75;;;36.13;17.72
60725;BME280;59881;36.722;-4.462;2023-02-20T11:02:17;101486.47;;;33.71;19.88
60725;BME280;59881;36.722;-4.462;2023-02-20T11:04:51;101579.53;;;32.78;20.79
60725;BME280;59881;36.722;-4.462;2023-02-20T11:07:19;101607.22;;;30.13;23.82
60725;BME280;59881;36.722;-4.462;2023-02-20T11:09:48;101604.38;;;27.36;26.80
60725;BME280;59881;36.722;-4.462;2023-02-20T11:12:28;101576.56;;;25.39;30.02
60725;BME280;59881;36.722;-4.462;2023-02-20T11:14:59;101585.16;;;24.31;30.96
60725;BME280;59881;36.722;-4.462;2023-02-20T11:17:28;101607.69;;;23.56;32.50
60725;BME280;59881;36.722;-4.462;2023-02-20T11:19:58;101568.91;;;22.82;33.64
60725;BME280;59881;36.722;-4.462;2023-02-20T11:22:42;101604.56;;;22.92;34.41
60725;BME280;59881;36.722;-4.462;2023-02-20T11:25:16;101606.31;;;22.75;34.28
60725;BME280;59881;36.722;-4.462;2023-02-20T11:27:43;101603.78;;;22.65;34.48
60725;BME280;59881;36.722;-4.462;2023-02-20T11:32:48;101589.22;;;22.06;35.94
60725;BME280;59881;36.722;-4.462;2023-02-20T11:37:43;101240.94;;;19.43;35.97
60725;BME280;59881;36.722;-4.462;2023-02-20T11:42:46;101503.59;;;21.15;36.88
60725;BME280;59881;36.722;-4.462;2023-02-20T11:45:16;101581.34;;;21.51;36.19
60725;BME280;59881;36.722;-4.462;2023-02-20T11:48:06;101612.94;;;21.75;36.61
60725;BME280;59881;36.722;-4.462;2023-02-20T11:50:46;101604.72;;;21.76;36.18
60725;BME280;59881;36.722;-4.462;2023-02-20T11:53:29;101613.91;;;21.56;36.64
60725;BME280;59881;36.722;-4.462;2023-02-20T11:58:31;101570.94;;;20.92;37.88
60725;BME280;59881;36.722;-4.462;2023-02-20T12:00:57;101568.53;;;20.99;37.60
60725;BME280;59881;36.722;-4.462;2023-02-20T12:03:25;101622.13;;;20.89;37.32
60725;BME280;59881;36.722;-4.462;2023-02-20T12:05:52;101506.31;;;20.40;37.92
60725;BME280;59881;36.722;-4.462;2023-02-20T12:08:30;101591.91;;;20.69;37.94
60725;BME280;59881;36.722;-4.462;2023-02-20T12:11:00;101598.28;;;20.49;38.69
60725;BME280;59881;36.722;-4.462;2023-02-20T12:13:29;101586.75;;;20.38;38.59
60725;BME280;59881;36.722;-4.462;2023-02-20T12:18:44;101035.94;;;16.76;39.36
60725;BME280;59881;36.722;-4.462;2023-02-20T12:26:51;101593.16;;;19.89;40.29
60725;BME280;59881;36.722;-4.462;2023-02-20T12:57:14;101539.19;;;19.35;43.16
60725;BME280;59881;36.722;-4.462;2023-02-20T13:02:24;101506.00;;;19.28;43.17
60725;BME280;59881;36.722;-4.462;2023-02-20T13:04:54;101525.69;;;19.36;43.01
60725;BME280;59881;36.722;-4.462;2023-02-20T13:07:29;101417.41;;;18.84;43.14
60725;BME280;59881;36.722;-4.462;2023-02-20T13:10:15;100862.53;;;15.59;42.68
60725;BME280;59881;36.722;-4.462;2023-02-20T13:12:42;101522.50;;;19.62;42.37
60725;BME280;59881;36.722;-4.462;2023-02-20T13:16:00;101519.66;;;19.63;42.82
60725;BME280;59881;36.722;-4.462;2023-02-20T13:18:51;101518.94;;;19.61;43.29
60725;BME280;59881;36.722;-4.462;2023-02-20T13:21:23;101521.63;;;19.61;43.16
60725;BME280;59881;36.722;-4.462;2023-02-20T13:23:50;101486.69;;;18.95;43.27
60725;BME280;59881;36.722;-4.462;2023-02-20T13:29:20;101480.16;;;19.38;43.55
60725;BME280;59881;36.722;-4.462;2023-02-20T13:34:41;101493.25;;;19.70;43.70
60725;BME280;59881;36.722;-4.462;2023-02-20T13:45:42;100700.56;;;14.65;44.18
60725;BME280;59881;36.722;-4.462;2023-02-20T13:48:42;101478.88;;;19.32;44.68
60725;BME280;59881;36.722;-4.462;2023-02-20T13:53:57;101481.00;;;19.29;44.94
60725;BME280;59881;36.722;-4.462;2023-02-20T13:56:30;101471.41;;;19.07;45.81
60725;BME280;59881;36.722;-4.462;2023-02-20T13:59:12;101231.34;;;17.66;46.18
60725;BME280;59881;36.722;-4.462;2023-02-20T14:02:11;101457.31;;;18.95;46.60
60725;BME280;59881;36.722;-4.462;2023-02-20T14:04:37;101415.78;;;18.52;46.98
60725;BME280;59881;36.722;-4.462;2023-02-20T14:07:03;101396.59;;;18.27;47.71
60725;BME280;59881;36.722;-4.462;2023-02-20T14:09:29;101084.31;;;16.39;47.57
60725;BME280;59881;36.722;-4.462;2023-02-20T14:12:04;101437.72;;;18.75;47.59
60725;BME280;59881;36.722;-4.462;2023-02-20T14:14:35;101640.94;;;18.81;47.40
60725;BME280;59881;36.722;-4.462;2023-02-20T14:19:37;101382.09;;;18.60;47.05
60725;BME280;59881;36.722;-4.462;2023-02-20T14:22:33;101418.31;;;18.73;47.76
60725;BME280;59881;36.722;-4.462;2023-02-20T14:27:38;100946.75;;;15.89;48.26
60725;BME280;59881;36.722;-4.462;2023-02-20T14:32:33;101408.47;;;18.54;47.69
60725;BME280;59881;36.722;-4.462;2023-02-20T14:40:57;101334.22;;;18.09;47.14
60725;BME280;59881;36.722;-4.462;2023-02-20T14:43:25;101383.63;;;18.13;47.81
60725;BME280;59881;36.722;-4.462;2023-02-20T14:46:03;101402.84;;;18.47;48.27
60725;BME280;59881;36.722;-4.462;2023-02-20T14:48:36;101426.53;;;18.40;48.53
60725;BME280;59881;36.722;-4.462;2023-02-20T14:51:22;101374.16;;;18.30;48.76
60725;BME280;59881;36.722;-4.462;2023-02-20T14:53:59;101405.50;;;18.47;48.84